Time;durP1;ratioP1;P1;durP2;ratioP2;P2;SDS_P1;SDS_P2;PMS_P1;PMS_P2;Temp;Humidity;BMP_temperature;BMP_pressure;BME280_temperature;BME280_humidity;BME280_pressure;Samples;Min_cycle;Max_cycle;Signal;HPM_P1;HPM_P2
2022/11/15 00:00:17;;;;;;;16.70;9.02;;;9.20;90.50;;;;;;5057153;28;20047;-68
2022/11/15 00:03:05;;;;;;;17.92;8.98;;;9.20;90.50;;;;;;5056062;28;20183;-67
2022/11/15 00:06:02;;;;;;;16.35;8.55;;;9.20;90.50;;;;;;5057506;28;20186;-61
2022/11/15 00:08:48;;;;;;;14.05;7.03;;;9.20;90.50;;;;;;5057296;28;20058;-61
2022/11/15 00:11:33;;;;;;;14.52;7.30;;;9.20;90.60;;;;;;5053763;28;20048;-59
2022/11/15 00:14:19;;;;;;;15.45;7.28;;;9.30;90.60;;;;;;5055073;28;20113;-60
2022/11/15 00:17:11;;;;;;;14.60;6.95;;;9.20;90.50;;;;;;5052764;28;20056;-60
2022/11/15 00:19:57;;;;;;;13.40;7.20;;;9.20;90.50;;;;;;5049908;28;20101;-60
2022/11/15 00:22:44;;;;;;;11.43;6.28;;;9.30;90.50;;;;;;5052851;28;20530;-61
2022/11/15 00:25:30;;;;;;;11.65;5.65;;;9.20;90.70;;;;;;5056720;28;20060;-61
2022/11/15 00:28:16;;;;;;;11.70;5.88;;;9.20;90.70;;;;;;5055181;28;20063;-61
2022/11/15 00:31:03;;;;;;;11.48;6.03;;;9.30;90.60;;;;;;5054044;28;20106;-59
2022/11/15 00:33:51;;;;;;;12.60;6.72;;;9.30;90.60;;;;;;5055359;28;20109;-61
2022/11/15 00:36:38;;;;;;;11.50;6.45;;;9.20;90.60;;;;;;5053791;28;20525;-61
2022/11/15 00:39:24;;;;;;;10.52;5.80;;;9.20;90.60;;;;;;5049515;28;20094;-59
2022/11/15 00:42:09;;;;;;;13.07;6.22;;;9.20;90.40;;;;;;5054746;28;20578;-61
2022/11/15 00:44:55;;;;;;;13.80;6.78;;;9.20;90.60;;;;;;5058742;28;20058;-61
2022/11/15 00:47:40;;;;;;;10.48;5.68;;;9.10;90.50;;;;;;5054375;28;20220;-60
2022/11/15 00:50:27;;;;;;;12.50;6.13;;;9.10;90.60;;;;;;5055554;28;20063;-60
2022/11/15 00:53:14;;;;;;;13.32;6.30;;;9.10;90.50;;;;;;5057098;28;20048;-60
2022/11/15 00:56:00;;;;;;;13.27;6.40;;;9.10;90.60;;;;;;5054519;28;20598;-61
2022/11/15 00:58:48;;;;;;;11.82;6.40;;;9.10;90.60;;;;;;5054637;28;20116;-61
2022/11/15 01:01:33;;;;;;;11.43;5.97;;;9.10;90.60;;;;;;5058725;28;20047;-61
2022/11/15 01:04:21;;;;;;;14.20;6.82;;;9.10;90.50;;;;;;5056385;28;20056;-60
2022/11/15 01:07:06;;;;;;;13.88;5.65;;;9.00;90.50;;;;;;5054641;28;20056;-60
2022/11/15 01:09:53;;;;;;;13.45;6.50;;;9.00;90.60;;;;;;5055334;28;20055;-60
2022/11/15 01:12:41;;;;;;;12.82;6.00;;;9.00;90.50;;;;;;5055621;28;20122;-60
2022/11/15 01:15:26;;;;;;;12.50;5.95;;;9.00;90.50;;;;;;5051530;28;20059;-61
2022/11/15 01:18:14;;;;;;;10.93;5.30;;;9.10;90.50;;;;;;5055168;28;20180;-62
2022/11/15 01:20:59;;;;;;;11.52;5.40;;;9.10;90.50;;;;;;5056730;28;20079;-60
2022/11/15 01:23:45;;;;;;;11.30;4.95;;;9.00;90.60;;;;;;5054835;28;20526;-61
2022/11/15 01:26:32;;;;;;;10.30;5.30;;;9.10;90.60;;;;;;5053731;28;20454;-62
2022/11/15 01:29:20;;;;;;;8.32;4.28;;;9.10;90.40;;;;;;5057293;28;20553;-61
2022/11/15 01:32:06;;;;;;;10.07;4.63;;;9.10;90.60;;;;;;5053862;28;20435;-61
2022/11/15 01:34:52;;;;;;;8.60;4.10;;;9.00;90.60;;;;;;5057757;28;20047;-61
2022/11/15 01:37:38;;;;;;;8.18;4.10;;;9.10;90.60;;;;;;5057314;28;20063;-62
2022/11/15 01:40:23;;;;;;;9.98;4.55;;;9.10;90.60;;;;;;5053852;28;20146;-60
2022/11/15 01:43:27;;;;;;;10.10;4.57;;;9.10;90.60;;;;;;5057485;28;20080;-59
2022/11/15 01:46:24;;;;;;;7.88;4.38;;;9.10;90.60;;;;;;5054317;28;20063;-62
2022/11/15 01:49:15;;;;;;;8.18;4.28;;;9.10;90.60;;;;;;5053127;28;20048;-60
2022/11/15 01:52:01;;;;;;;;;;;9.10;90.60;;;;;;5057329;28;20059;-59
2022/11/15 01:54:56;;;;;;;8.80;4.22;;;9.10;90.60;;;;;;5056715;28;19951;-60
2022/11/15 01:57:43;;;;;;;10.77;4.60;;;9.10;90.60;;;;;;5048834;28;20056;-60
2022/11/15 02:00:31;;;;;;;8.82;4.47;;;9.10;90.50;;;;;;5053520;28;20154;-62
2022/11/15 02:03:17;;;;;;;8.60;4.18;;;9.10;90.40;;;;;;5053716;28;20202;-61
2022/11/15 02:06:05;;;;;;;8.68;4.60;;;9.00;90.60;;;;;;5052102;28;20564;-60
2022/11/15 02:08:51;;;;;;;9.00;4.55;;;9.00;90.70;;;;;;5057473;28;20055;-60
2022/11/15 02:11:37;;;;;;;7.30;3.97;;;9.00;90.70;;;;;;5055205;28;20288;-60
2022/11/15 02:14:24;;;;;;;7.30;3.88;;;9.00;90.70;;;;;;5052888;28;20051;-60
2022/11/15 02:17:38;;;;;;;8.02;3.83;;;9.00;90.50;;;;;;5053473;28;20528;-59
2022/11/15 02:20:44;;;;;;;6.97;3.80;;;8.90;90.60;;;;;;5055041;28;20063;-61
2022/11/15 02:24:02;;;;;;;8.60;3.83;;;8.90;90.70;;;;;;5054800;28;20149;-61
2022/11/15 02:27:40;;;;;;;6.97;3.58;;;9.00;90.50;;;;;;5055294;28;20134;-61
2022/11/15 02:30:37;;;;;;;10.07;4.32;;;9.00;90.50;;;;;;5053341;28;20056;-60
2022/11/15 02:33:34;;;;;;;9.32;3.83;;;8.90;90.60;;;;;;5056474;28;20056;-60
2022/11/15 02:36:30;;;;;;;6.88;3.67;;;8.90;90.70;;;;;;5050730;28;20056;-60
2022/11/15 02:39:24;;;;;;;8.85;4.60;;;8.90;90.80;;;;;;5054740;28;20055;-61
2022/11/15 02:45:21;;;;;;;7.95;4.13;;;8.80;90.90;;;;;;5049268;28;20051;-61
2022/11/15 02:48:10;;;;;;;7.13;3.83;;;8.90;90.70;;;;;;5056777;28;20051;-61
2022/11/15 02:50:55;;;;;;;7.53;3.88;;;8.90;90.50;;;;;;5040881;28;20048;-60
2022/11/15 02:53:41;;;;;;;7.60;3.75;;;8.90;90.50;;;;;;5056500;28;20139;-59
2022/11/15 02:56:27;;;;;;;7.95;4.32;;;8.90;90.70;;;;;;5054552;28;20055;-60
2022/11/15 02:59:35;;;;;;;8.68;3.65;;;8.90;90.80;;;;;;5053642;28;20064;-60
2022/11/15 03:02:37;;;;;;;7.32;4.07;;;8.90;90.90;;;;;;5055727;28;20105;-60
2022/11/15 03:05:31;;;;;;;6.88;4.05;;;8.80;90.80;;;;;;5054025;28;20060;-61
2022/11/15 03:08:24;;;;;;;8.15;3.90;;;8.80;90.80;;;;;;5054425;28;20812;-60
2022/11/15 03:11:14;;;;;;;8.82;3.83;;;8.80;90.80;;;;;;5054061;28;20055;-59
2022/11/15 03:14:07;;;;;;;7.75;4.15;;;8.80;90.80;;;;;;5053756;28;20118;-59
2022/11/15 03:17:02;;;;;;;8.27;3.97;;;8.80;90.80;;;;;;5053702;28;20179;-61
2022/11/15 03:19:51;;;;;;;7.20;3.72;;;8.80;90.70;;;;;;5053905;28;20641;-61
2022/11/15 03:22:41;;;;;;;7.65;3.60;;;8.80;90.60;;;;;;5058558;28;20056;-60
2022/11/15 03:25:30;;;;;;;8.00;3.40;;;8.80;90.70;;;;;;5049189;28;20439;-61
2022/11/15 03:28:21;;;;;;;8.70;3.80;;;8.80;90.60;;;;;;5059349;28;20099;-60
2022/11/15 03:34:15;;;;;;;7.05;3.45;;;8.70;90.60;;;;;;5057818;28;20071;-59
2022/11/15 03:37:00;;;;;;;7.85;3.83;;;8.70;90.50;;;;;;5059866;28;20068;-59
2022/11/15 03:39:49;;;;;;;9.45;3.90;;;8.80;90.30;;;;;;5059345;28;20048;-60
2022/11/15 03:42:41;;;;;;;9.15;4.30;;;8.70;90.30;;;;;;5051649;28;20159;-61
2022/11/15 03:45:32;;;;;;;9.02;4.00;;;8.70;90.30;;;;;;5048314;28;20102;-60
2022/11/15 03:48:22;;;;;;;8.05;4.60;;;8.70;90.20;;;;;;5053183;28;20055;-60
2022/11/15 03:51:07;;;;;;;8.23;4.35;;;8.70;90.30;;;;;;5052158;28;20075;-60
2022/11/15 03:53:53;;;;;;;7.38;3.80;;;8.70;90.20;;;;;;5051060;28;20518;-60
2022/11/15 03:56:39;;;;;;;6.97;3.30;;;8.70;90.20;;;;;;5055091;28;20067;-60
2022/11/15 03:59:25;;;;;;;6.03;3.03;;;8.70;90.20;;;;;;5054348;28;20114;-61
2022/11/15 04:02:10;;;;;;;7.82;3.30;;;8.70;90.20;;;;;;5055398;28;20056;-61
2022/11/15 04:04:55;;;;;;;6.18;3.13;;;8.70;90.20;;;;;;5055796;28;20055;-61
2022/11/15 04:07:42;;;;;;;7.70;3.28;;;8.70;90.20;;;;;;5055288;28;20089;-60
2022/11/15 04:10:27;;;;;;;6.80;2.95;;;8.70;90.20;;;;;;5049924;28;20067;-61
2022/11/15 04:13:14;;;;;;;6.72;3.53;;;8.60;90.20;;;;;;5052288;28;20055;-61
2022/11/15 04:15:59;;;;;;;7.55;2.75;;;8.70;90.20;;;;;;5053504;28;20048;-61
2022/11/15 04:24:11;;;;;;;6.78;3.20;;;8.60;90.20;;;;;;5053674;28;20060;-61
2022/11/15 04:25:10;;;;;;;6.18;3.00;;;8.60;90.20;;;;;;4995224;28;20572;-62
2022/11/15 04:27:56;;;;;;;6.18;3.13;;;8.60;90.20;;;;;;5056550;28;20133;-61
2022/11/15 04:30:42;;;;;;;6.53;2.85;;;8.60;90.10;;;;;;5055621;28;20106;-61
2022/11/15 04:33:28;;;;;;;5.18;2.55;;;8.60;90.00;;;;;;5058222;28;20059;-61
2022/11/15 04:39:17;;;;;;;7.57;3.15;;;8.60;90.00;;;;;;5056993;28;20159;-62
2022/11/15 04:42:02;;;;;;;5.63;2.85;;;8.70;90.00;;;;;;5058969;28;20056;-61
2022/11/15 04:44:48;;;;;;;6.07;2.60;;;8.60;89.90;;;;;;5057405;28;20503;-61
2022/11/15 04:47:35;;;;;;;7.82;3.28;;;8.60;90.00;;;;;;5056299;28;20073;-61
2022/11/15 04:50:21;;;;;;;6.03;2.67;;;8.60;90.00;;;;;;5055679;28;20522;-61
2022/11/15 04:53:06;;;;;;;5.70;2.90;;;8.60;90.00;;;;;;5057591;28;20090;-60
2022/11/15 04:55:52;;;;;;;5.63;2.47;;;8.60;90.00;;;;;;5055016;28;20071;-60
2022/11/15 04:58:37;;;;;;;5.30;2.75;;;8.60;90.00;;;;;;5059717;28;20056;-61
2022/11/15 05:01:22;;;;;;;5.82;2.85;;;8.60;89.90;;;;;;5055348;28;20126;-62
2022/11/15 05:04:20;;;;;;;5.55;2.95;;;8.60;89.90;;;;;;5057480;28;20207;-61
2022/11/15 05:07:06;;;;;;;5.55;2.50;;;8.60;89.90;;;;;;5057725;28;20133;-61
2022/11/15 05:09:53;;;;;;;5.28;2.40;;;8.60;89.90;;;;;;5056861;28;20056;-61
2022/11/15 05:12:39;;;;;;;4.80;2.45;;;8.50;89.90;;;;;;5051413;28;20510;-61
2022/11/15 05:15:24;;;;;;;4.85;2.78;;;8.60;89.90;;;;;;5054885;28;20060;-61
2022/11/15 05:18:09;;;;;;;6.45;2.72;;;8.50;89.90;;;;;;5056076;28;20623;-59
2022/11/15 05:20:56;;;;;;;7.85;2.92;;;8.50;90.00;;;;;;5051638;28;20399;-61
2022/11/15 05:23:42;;;;;;;5.65;2.65;;;8.50;90.00;;;;;;5056653;28;20052;-59
2022/11/15 05:26:28;;;;;;;6.20;2.80;;;8.60;90.00;;;;;;5052557;28;20068;-61
2022/11/15 05:29:14;;;;;;;4.80;2.67;;;8.60;90.00;;;;;;5048287;28;20056;-60
2022/11/15 05:31:59;;;;;;;5.35;2.47;;;8.60;90.00;;;;;;5053061;28;20063;-60
2022/11/15 05:34:46;;;;;;;6.88;3.10;;;8.60;90.00;;;;;;5053674;28;20423;-61
2022/11/15 05:37:33;;;;;;;5.35;2.83;;;8.60;90.00;;;;;;5055573;28;20133;-59
2022/11/15 05:40:18;;;;;;;6.05;2.70;;;8.70;90.00;;;;;;5053234;28;20059;-60
2022/11/15 05:43:06;;;;;;;7.55;2.88;;;8.70;90.00;;;;;;5055386;28;20047;-59
2022/11/15 05:45:51;;;;;;;7.35;2.53;;;8.70;90.10;;;;;;5052832;28;20176;-61
2022/11/15 05:48:40;;;;;;;5.38;3.08;;;8.70;90.10;;;;;;5053129;28;20048;-61
2022/11/15 05:51:29;;;;;;;4.85;2.63;;;8.70;90.10;;;;;;5054920;28;20064;-61
2022/11/15 05:54:18;;;;;;;6.25;2.60;;;8.70;90.00;;;;;;5055081;28;20418;-61
2022/11/15 05:57:05;;;;;;;4.20;2.17;;;8.70;90.00;;;;;;5052706;28;20514;-61
2022/11/15 05:59:51;;;;;;;5.97;2.83;;;8.70;89.90;;;;;;5056115;28;20056;-60
2022/11/15 06:02:36;;;;;;;7.72;2.85;;;8.70;89.90;;;;;;5056613;28;20052;-61
2022/11/15 06:05:22;;;;;;;6.40;2.63;;;8.70;89.80;;;;;;5056983;28;20051;-61
2022/11/15 06:08:07;;;;;;;5.45;2.70;;;8.70;89.90;;;;;;5056042;28;20130;-61
2022/11/15 06:10:54;;;;;;;5.78;2.90;;;8.70;89.80;;;;;;5054836;28;20063;-61
2022/11/15 06:13:40;;;;;;;6.38;3.08;;;8.70;89.90;;;;;;5053673;28;20502;-60
2022/11/15 06:16:25;;;;;;;6.85;2.78;;;8.70;89.90;;;;;;5049453;28;20048;-61
2022/11/15 06:19:10;;;;;;;6.13;2.88;;;8.70;89.90;;;;;;5048893;28;20652;-59
2022/11/15 06:21:56;;;;;;;5.10;2.97;;;8.80;89.90;;;;;;5054472;28;20051;-61
2022/11/15 06:24:43;;;;;;;6.90;3.40;;;8.80;89.80;;;;;;5054859;28;20060;-61
2022/11/15 06:27:30;;;;;;;6.00;3.10;;;8.70;89.80;;;;;;5054518;28;20060;-61
2022/11/15 06:30:16;;;;;;;6.60;3.05;;;8.80;89.80;;;;;;5054202;28;20051;-61
2022/11/15 06:33:02;;;;;;;6.80;3.15;;;8.80;89.50;;;;;;5054296;28;20494;-60
2022/11/15 06:35:48;;;;;;;6.60;3.30;;;8.70;89.70;;;;;;5055551;28;20040;-61
2022/11/15 06:38:33;;;;;;;5.45;2.65;;;8.70;89.70;;;;;;5055208;28;20051;-61
2022/11/15 06:41:20;;;;;;;5.45;2.90;;;8.60;89.80;;;;;;5053701;28;20056;-60
2022/11/15 06:44:07;;;;;;;5.80;2.95;;;8.60;89.80;;;;;;5057675;28;20052;-64
2022/11/15 06:46:53;;;;;;;5.68;2.72;;;8.60;89.80;;;;;;5055559;28;20415;-60
2022/11/15 06:49:38;;;;;;;5.90;2.88;;;8.60;89.80;;;;;;5055557;28;20126;-61
2022/11/15 06:52:23;;;;;;;6.57;2.92;;;8.50;89.80;;;;;;5056037;28;20060;-59
2022/11/15 06:55:09;;;;;;;4.72;2.70;;;8.50;89.70;;;;;;5060211;28;20182;-60
2022/11/15 06:57:55;;;;;;;5.65;2.63;;;8.50;89.70;;;;;;5058493;28;20510;-60
2022/11/15 07:00:42;;;;;;;8.32;3.25;;;8.50;89.80;;;;;;5058355;28;20056;-60
2022/11/15 07:03:28;;;;;;;6.40;3.30;;;8.50;89.80;;;;;;5058521;28;20466;-61
2022/11/15 07:06:13;;;;;;;5.00;2.55;;;8.40;89.70;;;;;;5056047;28;20052;-60
2022/11/15 07:08:58;;;;;;;6.50;3.15;;;8.40;89.80;;;;;;5056826;28;20047;-61
2022/11/15 07:11:44;;;;;;;5.65;2.75;;;8.40;89.80;;;;;;5059571;28;20059;-60
2022/11/15 07:14:29;;;;;;;6.60;2.90;;;8.40;89.70;;;;;;5057418;28;20052;-61
2022/11/15 07:17:16;;;;;;;6.28;3.10;;;8.40;89.70;;;;;;5057830;28;20039;-59
2022/11/15 07:20:02;;;;;;;6.78;3.25;;;8.40;89.70;;;;;;5059522;28;20767;-61
2022/11/15 07:22:50;;;;;;;6.57;3.67;;;8.40;89.60;;;;;;5057099;28;20051;-60
2022/11/15 07:25:38;;;;;;;8.40;3.45;;;8.30;89.70;;;;;;5056825;28;20300;-61
2022/11/15 07:28:23;;;;;;;6.35;3.03;;;8.30;89.60;;;;;;5050629;28;20126;-61
2022/11/15 07:31:09;;;;;;;6.45;3.42;;;8.30;89.70;;;;;;5055404;28;20149;-60
2022/11/15 07:33:57;;;;;;;7.05;3.00;;;8.30;89.70;;;;;;5055367;28;20101;-61
2022/11/15 07:36:43;;;;;;;6.25;3.50;;;8.30;89.70;;;;;;5057089;28;20052;-60
2022/11/15 07:39:28;;;;;;;7.28;3.50;;;8.30;89.80;;;;;;5058130;28;20461;-60
2022/11/15 07:45:17;;;;;;;7.97;2.95;;;8.40;89.80;;;;;;5057683;28;20048;-62
2022/11/15 07:48:03;;;;;;;6.20;2.92;;;8.40;89.60;;;;;;5058194;28;20098;-61
2022/11/15 07:50:50;;;;;;;6.47;3.22;;;8.50;89.50;;;;;;5057982;28;20067;-61
2022/11/15 07:53:35;;;;;;;5.20;2.80;;;8.60;89.40;;;;;;5054663;28;21115;-61
2022/11/15 07:56:24;;;;;;;6.38;2.83;;;8.60;89.50;;;;;;5057559;28;20494;-61
2022/11/15 07:59:09;;;;;;;6.03;2.63;;;8.60;89.50;;;;;;5057560;28;20075;-60
2022/11/15 08:01:55;;;;;;;7.40;3.20;;;8.60;89.60;;;;;;5057731;28;20167;-61
2022/11/15 08:04:40;;;;;;;6.13;3.10;;;8.70;89.50;;;;;;5059554;28;20186;-59
2022/11/15 08:07:30;;;;;;;6.72;3.33;;;8.70;89.50;;;;;;5058451;28;20059;-61
2022/11/15 08:10:18;;;;;;;9.00;3.70;;;8.70;89.70;;;;;;5047186;28;20052;-60
2022/11/15 08:13:07;;;;;;;6.32;3.45;;;8.70;89.70;;;;;;5058710;28;20047;-59
2022/11/15 08:15:52;;;;;;;8.48;3.17;;;8.70;89.70;;;;;;5054780;28;20410;-59
2022/11/15 08:18:38;;;;;;;5.40;2.88;;;8.70;89.30;;;;;;5051951;28;20546;-60
2022/11/15 08:21:24;;;;;;;5.93;3.33;;;8.70;89.40;;;;;;5058754;28;20067;-61
2022/11/15 08:24:11;;;;;;;7.40;3.08;;;8.70;89.70;;;;;;5057091;28;20395;-60
2022/11/15 08:26:57;;;;;;;7.95;3.47;;;8.70;89.70;;;;;;5050963;28;20051;-59
2022/11/15 08:29:43;;;;;;;6.72;3.10;;;8.80;89.70;;;;;;5056887;28;20056;-61
2022/11/15 08:32:28;;;;;;;5.47;2.97;;;8.80;89.60;;;;;;5054803;28;20060;-60
2022/11/15 08:35:14;;;;;;;6.68;3.20;;;8.80;89.60;;;;;;5056908;28;20056;-59
2022/11/15 08:37:59;;;;;;;6.72;3.33;;;8.80;89.60;;;;;;5059050;28;20055;-61
2022/11/15 08:40:46;;;;;;;6.75;2.83;;;8.80;89.60;;;;;;5057784;28;20051;-59
2022/11/15 08:43:32;;;;;;;6.95;3.35;;;8.80;89.40;;;;;;5055389;28;20059;-61
2022/11/15 08:46:18;;;;;;;5.45;2.60;;;8.90;89.40;;;;;;5054397;28;20052;-60
2022/11/15 08:49:03;;;;;;;6.70;3.10;;;8.90;89.50;;;;;;5051586;28;20616;-60
2022/11/15 08:51:49;;;;;;;7.75;3.25;;;8.90;89.40;;;;;;5057581;28;20059;-61
2022/11/15 08:54:34;;;;;;;6.05;2.88;;;8.90;89.60;;;;;;5054717;28;20089;-59
2022/11/15 08:57:21;;;;;;;5.63;2.58;;;9.00;89.50;;;;;;5052695;28;20059;-61
2022/11/15 09:00:08;;;;;;;7.25;2.95;;;9.10;89.60;;;;;;5054253;28;20059;-61
2022/11/15 09:05:25;;;;;;;7.75;2.92;;;9.20;89.60;;;;;;4022185;22;20053;-62
2022/11/15 09:08:12;;;;;;;4.57;2.55;;;9.30;89.40;;;;;;5037190;28;20521;-61
2022/11/15 09:10:58;;;;;;;4.85;2.83;;;9.30;89.30;;;;;;5046022;28;20044;-62
2022/11/15 09:13:45;;;;;;;7.75;3.20;;;9.30;89.30;;;;;;5048059;28;20079;-61
2022/11/15 09:16:31;;;;;;;5.63;3.05;;;9.40;89.10;;;;;;5041872;28;20536;-63
2022/11/15 09:19:16;;;;;;;6.35;3.15;;;9.40;89.00;;;;;;5048153;28;20118;-63
2022/11/15 09:22:02;;;;;;;6.13;2.70;;;9.40;88.90;;;;;;5049586;28;20520;-62
2022/11/15 09:24:48;;;;;;;5.65;2.58;;;9.40;88.90;;;;;;5048478;28;20137;-62
2022/11/15 09:27:33;;;;;;;8.52;3.30;;;9.50;89.00;;;;;;5049959;28;20509;-62
2022/11/15 09:30:20;;;;;;;6.38;2.75;;;9.50;89.20;;;;;;5047576;28;20099;-62
2022/11/15 09:33:09;;;;;;;5.32;2.63;;;9.60;89.20;;;;;;5049021;28;20052;-62
2022/11/15 09:36:01;;;;;;;5.57;2.58;;;9.60;89.00;;;;;;5048744;28;20073;-64
2022/11/15 09:38:46;;;;;;;;;;;9.60;88.70;;;;;;5050872;28;20051;-62
2022/11/15 09:41:49;;;;;;;6.70;3.05;;;9.70;88.60;;;;;;5049011;28;19974;-62
2022/11/15 09:44:57;;;;;;;5.22;2.63;;;9.70;88.50;;;;;;5050745;28;20186;-62
2022/11/15 09:48:08;;;;;;;7.15;2.63;;;9.80;88.50;;;;;;5048864;28;20134;-61
2022/11/15 09:50:51;;;;;;;6.65;2.67;;;9.90;88.30;;;;;;5048157;28;20045;-62
2022/11/15 09:53:26;;;;;;;5.43;2.70;;;10.00;88.40;;;;;;5048860;28;20914;-63
2022/11/15 09:55:59;;;;;;;6.75;2.50;;;10.00;88.30;;;;;;5050303;28;20134;-62
2022/11/15 09:58:34;;;;;;;5.45;2.80;;;10.10;88.20;;;;;;5043162;28;20052;-62
2022/11/15 10:01:07;;;;;;;4.82;2.22;;;10.20;88.20;;;;;;5050164;28;20055;-61
2022/11/15 10:03:41;;;;;;;5.43;2.42;;;10.20;87.90;;;;;;5050464;28;20051;-61
2022/11/15 10:06:16;;;;;;;5.93;2.67;;;10.30;87.90;;;;;;5049266;28;20144;-60
2022/11/15 10:08:56;;;;;;;5.53;2.60;;;10.30;88.00;;;;;;5047787;28;20045;-61
2022/11/15 10:11:26;;;;;;;5.25;2.63;;;10.40;87.90;;;;;;5045975;28;20063;-62
2022/11/15 10:13:56;;;;;;;6.75;2.97;;;10.40;87.60;;;;;;5048880;28;20156;-62
2022/11/15 10:16:54;;;;;;;4.93;2.53;;;10.40;87.70;;;;;;5045217;28;20107;-62
2022/11/15 10:19:30;;;;;;;5.68;2.70;;;10.50;87.90;;;;;;5044122;28;20563;-62
2022/11/15 10:22:09;;;;;;;5.15;2.58;;;10.50;87.70;;;;;;5046424;28;20041;-62
2022/11/15 10:24:42;;;;;;;4.50;2.30;;;10.60;87.80;;;;;;5045973;28;20122;-61
2022/11/15 10:27:12;;;;;;;5.15;2.65;;;10.60;87.60;;;;;;5048594;28;20213;-63
2022/11/15 10:29:47;;;;;;;6.07;2.25;;;10.60;87.60;;;;;;5050082;28;20040;-61
2022/11/15 10:32:20;;;;;;;5.45;2.38;;;10.60;87.50;;;;;;5049945;28;20159;-62
2022/11/15 10:34:49;;;;;;;4.20;2.05;;;10.70;87.40;;;;;;5049129;28;20048;-61
2022/11/15 10:37:28;;;;;;;3.77;2.07;;;10.70;87.30;;;;;;5051177;28;20509;-62
2022/11/15 10:40:04;;;;;;;5.57;2.67;;;10.80;87.40;;;;;;5050762;28;20132;-62
2022/11/15 10:42:31;;;;;;;5.75;2.58;;;10.80;87.40;;;;;;5051438;28;20045;-64
2022/11/15 10:45:01;;;;;;;4.95;2.35;;;10.90;87.20;;;;;;5052864;28;20041;-61
2022/11/15 10:47:31;;;;;;;5.45;2.40;;;10.90;87.40;;;;;;5048507;28;20086;-62
2022/11/15 10:50:03;;;;;;;5.05;2.78;;;11.00;87.40;;;;;;5051882;28;20055;-61
2022/11/15 10:52:35;;;;;;;6.30;3.25;;;11.00;87.30;;;;;;5050571;28;20049;-62
2022/11/15 10:55:20;;;;;;;5.53;2.90;;;11.00;87.20;;;;;;5052280;28;20060;-62
2022/11/15 10:57:52;;;;;;;6.93;2.97;;;11.00;87.20;;;;;;5051786;28;20067;-61
2022/11/15 11:00:30;;;;;;;6.15;2.25;;;11.10;87.20;;;;;;5050289;28;20041;-60
2022/11/15 11:03:00;;;;;;;6.95;2.92;;;11.10;87.10;;;;;;5053410;28;20059;-60
2022/11/15 11:05:32;;;;;;;6.13;2.75;;;11.10;87.10;;;;;;5051041;28;20052;-60
2022/11/15 11:08:02;;;;;;;7.45;2.80;;;11.10;87.20;;;;;;5052183;28;20465;-60
2022/11/15 11:10:29;;;;;;;5.88;2.85;;;11.10;87.30;;;;;;5051610;28;20079;-60
2022/11/15 11:12:57;;;;;;;6.10;3.20;;;11.10;87.20;;;;;;5052314;28;20453;-60
2022/11/15 11:15:28;;;;;;;8.70;3.47;;;11.10;87.20;;;;;;5050091;28;20049;-60
2022/11/15 11:18:09;;;;;;;7.88;2.95;;;11.20;87.00;;;;;;5045285;28;20064;-61
2022/11/15 11:20:45;;;;;;;7.32;2.72;;;11.20;87.00;;;;;;5050825;28;20055;-61
2022/11/15 11:23:29;;;;;;;5.28;3.03;;;11.20;87.00;;;;;;5051534;28;20049;-61
2022/11/15 11:26:07;;;;;;;5.57;2.83;;;11.20;87.00;;;;;;5051334;28;20041;-60
2022/11/15 11:28:42;;;;;;;6.32;2.95;;;11.20;87.10;;;;;;5050362;28;20538;-60
2022/11/15 11:31:25;;;;;;;6.55;3.35;;;11.30;87.00;;;;;;5044464;28;20464;-60
2022/11/15 11:34:05;;;;;;;5.93;3.50;;;11.40;86.90;;;;;;5050925;28;20567;-61
2022/11/15 11:36:42;;;;;;;5.47;2.85;;;11.40;87.10;;;;;;5052413;28;20151;-61
2022/11/15 11:39:21;;;;;;;5.18;2.72;;;11.40;86.90;;;;;;5051104;28;20045;-60
2022/11/15 11:41:59;;;;;;;6.20;2.80;;;11.50;86.80;;;;;;5051655;28;20041;-61
2022/11/15 11:44:35;;;;;;;4.93;2.60;;;11.50;86.80;;;;;;5051415;28;20049;-61
2022/11/15 11:47:08;;;;;;;5.55;2.63;;;11.60;86.40;;;;;;5051140;28;20143;-61
2022/11/15 11:49:41;;;;;;;5.32;2.67;;;11.70;86.50;;;;;;5049896;28;20048;-60
2022/11/15 11:52:16;;;;;;;7.13;3.50;;;11.70;86.50;;;;;;5050708;28;20041;-60
2022/11/15 11:54:59;;;;;;;9.18;3.38;;;11.70;86.60;;;;;;5049956;28;20136;-60
2022/11/15 11:57:34;;;;;;;7.32;3.83;;;11.70;86.70;;;;;;5051809;28;20059;-61
2022/11/15 12:00:05;;;;;;;5.47;2.85;;;11.80;86.60;;;;;;5049177;28;20060;-62
2022/11/15 12:02:42;;;;;;;6.28;2.75;;;11.80;86.40;;;;;;5050118;28;20617;-59
2022/11/15 12:05:18;;;;;;;8.68;3.47;;;11.90;86.10;;;;;;5049325;28;20080;-60
2022/11/15 12:07:51;;;;;;;5.50;2.80;;;11.90;86.10;;;;;;5048942;28;20033;-61
2022/11/15 12:10:24;;;;;;;4.90;2.45;;;11.90;86.10;;;;;;5049466;28;20102;-60
2022/11/15 12:12:57;;;;;;;4.80;2.20;;;11.90;85.80;;;;;;5048428;28;20083;-60
2022/11/15 12:15:28;;;;;;;5.07;2.50;;;11.90;85.60;;;;;;5049041;28;20055;-60
2022/11/15 12:17:56;;;;;;;5.45;2.55;;;12.00;86.00;;;;;;5050603;28;20049;-60
2022/11/15 12:20:26;;;;;;;7.40;3.15;;;12.00;85.60;;;;;;5049517;28;20102;-61
2022/11/15 12:23:01;;;;;;;5.40;2.70;;;12.00;85.70;;;;;;5048252;28;20068;-62
2022/11/15 12:25:32;;;;;;;4.97;2.65;;;12.00;85.40;;;;;;5047801;28;20049;-62
2022/11/15 12:28:05;;;;;;;5.95;2.50;;;12.10;85.80;;;;;;5047194;28;20491;-60
2022/11/15 12:30:44;;;;;;;5.72;2.72;;;12.00;85.60;;;;;;5047167;28;20130;-61
2022/11/15 12:33:43;;;;;;;6.20;2.83;;;12.10;85.60;;;;;;5048295;28;20045;-61
2022/11/15 12:36:13;;;;;;;7.22;2.85;;;12.10;85.60;;;;;;5048939;28;20099;-60
2022/11/15 12:39:01;;;;;;;7.05;2.92;;;12.10;85.70;;;;;;5050803;28;20041;-61
2022/11/15 12:41:33;;;;;;;7.88;3.28;;;12.20;85.80;;;;;;5049508;28;20049;-61
2022/11/15 12:44:02;;;;;;;16.05;3.42;;;12.20;85.60;;;;;;5051202;28;20202;-61
2022/11/15 12:47:02;;;;;;;6.63;3.00;;;12.20;85.30;;;;;;5050211;28;20045;-61
2022/11/15 12:49:46;;;;;;;6.38;3.10;;;12.20;85.50;;;;;;5050717;28;20055;-61
2022/11/15 12:52:16;;;;;;;5.78;2.50;;;12.20;85.60;;;;;;5050014;28;20051;-61
2022/11/15 12:55:03;;;;;;;5.90;2.83;;;12.30;85.60;;;;;;5048817;28;20158;-61
2022/11/15 12:57:42;;;;;;;6.47;2.67;;;12.20;85.70;;;;;;5047989;28;20048;-61
2022/11/15 13:00:48;;;;;;;7.20;2.95;;;12.30;85.50;;;;;;5051371;28;20059;-60
2022/11/15 13:03:24;;;;;;;5.85;2.30;;;12.30;85.50;;;;;;5051290;28;20053;-60
2022/11/15 13:06:07;;;;;;;5.03;2.60;;;12.30;85.20;;;;;;5051560;28;20057;-61
2022/11/15 13:08:50;;;;;;;4.93;2.55;;;12.40;85.00;;;;;;5018992;28;20057;-60
2022/11/15 13:11:53;;;;;;;4.38;2.20;;;12.40;84.80;;;;;;5049178;28;20405;-62
2022/11/15 13:14:46;;;;;;;6.43;2.70;;;12.40;84.50;;;;;;5051003;28;20060;-61
2022/11/15 13:17:45;;;;;;;5.18;2.38;;;12.40;84.20;;;;;;5050852;28;20076;-61
2022/11/15 13:20:30;;;;;;;4.20;2.20;;;12.50;84.40;;;;;;5049774;28;20135;-60
2022/11/15 13:23:08;;;;;;;4.93;2.25;;;12.50;84.20;;;;;;5047108;28;20045;-60
2022/11/15 13:25:53;;;;;;;6.45;2.28;;;12.50;84.00;;;;;;5050774;28;20144;-61
2022/11/15 13:28:34;;;;;;;4.82;2.38;;;12.60;83.80;;;;;;5051277;28;20449;-61
2022/11/15 13:31:22;;;;;;;5.80;2.40;;;12.60;83.80;;;;;;5044449;28;20103;-60
2022/11/15 13:33:49;;;;;;;5.85;2.40;;;12.60;83.70;;;;;;5049479;28;20051;-60
2022/11/15 13:36:21;;;;;;;4.68;2.35;;;12.60;83.90;;;;;;5045142;28;20045;-60
2022/11/15 13:38:57;;;;;;;4.47;2.15;;;12.50;83.60;;;;;;5048537;28;20075;-60
2022/11/15 13:41:27;;;;;;;5.18;2.38;;;12.50;83.20;;;;;;5049095;28;20075;-62
2022/11/15 13:43:57;;;;;;;5.15;2.10;;;12.50;83.30;;;;;;5047137;28;20048;-60
2022/11/15 13:46:26;;;;;;;5.47;2.08;;;12.50;83.60;;;;;;5049747;28;20462;-61
2022/11/15 13:48:56;;;;;;;6.97;2.63;;;12.50;83.60;;;;;;5049125;28;20057;-61
2022/11/15 13:51:28;;;;;;;5.95;2.47;;;12.40;83.60;;;;;;5049011;28;20053;-61
2022/11/15 13:54:03;;;;;;;4.38;2.30;;;12.50;83.50;;;;;;5046834;28;20507;-60
2022/11/15 13:56:32;;;;;;;5.47;2.38;;;12.40;83.50;;;;;;5047963;28;20423;-60
2022/11/15 13:59:01;;;;;;;5.63;2.72;;;12.40;83.60;;;;;;5044467;28;20064;-60
2022/11/15 14:01:35;;;;;;;7.78;3.60;;;12.40;83.40;;;;;;5044481;28;20061;-60
2022/11/15 14:04:02;;;;;;;7.53;4.10;;;12.40;84.00;;;;;;5031694;28;20049;-62
2022/11/15 14:06:31;;;;;;;7.78;4.03;;;12.40;84.00;;;;;;5043806;28;20061;-62
2022/11/15 14:09:36;;;;;;;9.48;4.28;;;12.40;84.00;;;;;;5043819;28;20041;-61
2022/11/15 14:12:27;;;;;;;9.10;4.30;;;12.40;84.10;;;;;;5047168;28;20052;-61
2022/11/15 14:14:55;;;;;;;;;;;12.30;84.00;;;;;;5046352;28;20360;-61
2022/11/15 14:17:40;;;;;;;7.68;3.38;;;12.30;83.80;;;;;;5049140;28;19920;-60
2022/11/15 14:20:36;;;;;;;9.73;4.15;;;12.30;83.70;;;;;;5048297;28;20491;-62
2022/11/15 14:23:19;;;;;;;7.18;3.83;;;12.30;84.00;;;;;;5048714;28;20061;-59
2022/11/15 14:25:57;;;;;;;6.88;3.67;;;12.20;83.80;;;;;;5047965;28;20666;-60
2022/11/15 14:28:44;;;;;;;8.25;4.35;;;12.20;83.90;;;;;;5054820;28;20037;-60
2022/11/15 14:31:28;;;;;;;8.60;5.03;;;12.20;83.90;;;;;;5038332;28;20185;-62
2022/11/15 14:34:04;;;;;;;10.90;6.25;;;12.20;83.90;;;;;;5049779;28;20053;-62
2022/11/15 14:36:35;;;;;;;13.40;6.90;;;12.20;83.80;;;;;;5050124;28;20052;-62
2022/11/15 14:39:05;;;;;;;13.65;7.63;;;12.20;84.00;;;;;;5050392;28;20041;-60